createdAt,value
2023-04-07T00:01:02.376Z,5.40
2023-04-07T00:02:06.197Z,5.40
2023-04-07T00:03:09.091Z,5.50
2023-04-07T00:04:13.228Z,6.00
2023-04-07T00:05:18.781Z,5.50
2023-04-07T00:06:22.376Z,5.50
2023-04-07T00:07:24.898Z,6.10
2023-04-07T00:08:28.825Z,5.60
2023-04-07T00:09:32.940Z,5.50
2023-04-07T00:10:37.136Z,5.60
2023-04-07T00:11:42.464Z,5.70
2023-04-07T00:12:47.562Z,5.70
2023-04-07T00:13:50.811Z,5.70
2023-04-07T00:14:54.356Z,9.90
2023-04-07T00:15:57.070Z,7.40
2023-04-07T00:17:00.917Z,5.90
2023-04-07T00:18:05.087Z,4.60
2023-04-07T00:19:12.234Z,6.00
2023-04-07T00:20:15.410Z,4.20
2023-04-07T00:21:21.243Z,5.90
2023-04-07T00:22:24.421Z,6.00
2023-04-07T00:23:28.712Z,6.10
2023-04-07T00:24:34.859Z,6.00
2023-04-07T00:25:38.988Z,6.00
2023-04-07T00:27:47.174Z,6.00
2023-04-07T00:28:52.504Z,6.00
2023-04-07T00:29:56.601Z,6.00
2023-04-07T00:30:59.703Z,6.80
2023-04-07T00:32:03.497Z,6.10
2023-04-07T00:33:09.823Z,6.10
2023-04-07T00:34:13.831Z,6.10
2023-04-07T00:35:23.504Z,5.90
2023-04-07T00:36:27.317Z,5.90
2023-04-07T00:37:31.972Z,5.90
2023-04-07T00:38:36.602Z,5.60
2023-04-07T00:39:40.592Z,5.90
2023-04-07T00:40:46.452Z,5.90
2023-04-07T00:41:51.395Z,5.90
2023-04-07T00:42:55.738Z,5.90
2023-04-07T00:44:03.965Z,5.80
2023-04-07T00:46:11.384Z,5.80
2023-04-07T00:47:15.089Z,5.80
2023-04-07T00:48:19.389Z,5.80
2023-04-07T00:49:22.191Z,5.90
2023-04-07T00:50:26.939Z,5.90
2023-04-07T00:51:30.167Z,2.60
2023-04-07T00:52:35.155Z,6.00
2023-04-07T00:53:37.869Z,6.00
2023-04-07T00:54:44.452Z,5.80
2023-04-07T00:55:47.882Z,5.90
2023-04-07T00:56:52.416Z,6.00
2023-04-07T00:59:02.254Z,8.50
2023-04-07T01:00:06.993Z,5.90
2023-04-07T01:01:20.770Z,5.90
2023-04-07T01:02:34.571Z,5.80
2023-04-07T01:03:46.489Z,5.80
2023-04-07T01:04:56.311Z,5.80
2023-04-07T01:06:04.260Z,5.90
2023-04-07T01:07:13.670Z,6.00
2023-04-07T01:08:28.412Z,5.90
2023-04-07T01:09:39.294Z,7.80
2023-04-07T01:10:50.626Z,6.00
2023-04-07T01:12:06.034Z,5.90
2023-04-07T01:13:24.011Z,5.90
2023-04-07T01:14:41.279Z,5.90
2023-04-07T01:16:07.060Z,5.90
2023-04-07T01:17:19.886Z,6.70
2023-04-07T01:18:30.134Z,5.90
2023-04-07T01:19:37.417Z,5.90
2023-04-07T01:20:47.452Z,8.10
2023-04-07T01:21:55.969Z,6.50
2023-04-07T01:23:08.255Z,6.10
2023-04-07T01:24:35.295Z,5.70
2023-04-07T01:26:05.925Z,5.90
2023-04-07T01:27:22.282Z,5.80
2023-04-07T01:28:51.454Z,5.90
2023-04-07T01:29:59.802Z,5.90
2023-04-07T01:31:07.861Z,6.00
2023-04-07T01:32:15.705Z,6.00
2023-04-07T01:33:20.304Z,6.00
2023-04-07T01:34:27.387Z,6.00
2023-04-07T01:35:35.614Z,6.00
2023-04-07T01:36:39.685Z,9.80
2023-04-07T01:37:46.090Z,6.10
2023-04-07T01:38:55.774Z,6.20
2023-04-07T01:39:58.482Z,5.90
2023-04-07T01:41:05.983Z,6.50
2023-04-07T01:42:10.864Z,6.10
2023-04-07T01:43:16.851Z,6.00
2023-04-07T01:44:22.026Z,6.10
2023-04-07T01:45:28.897Z,6.10
2023-04-07T01:46:31.760Z,8.60
2023-04-07T01:47:38.650Z,5.90
2023-04-07T01:48:44.194Z,6.00
2023-04-07T01:49:52.770Z,6.10
2023-04-07T01:50:58.536Z,6.10
2023-04-07T01:52:03.274Z,6.10
2023-04-07T01:53:07.271Z,6.00
2023-04-07T01:54:12.359Z,6.10
2023-04-07T01:55:18.205Z,6.10
2023-04-07T01:56:32.037Z,6.10
2023-04-07T01:57:36.877Z,6.10
2023-04-07T01:59:56.712Z,6.10
2023-04-07T02:01:04.666Z,6.10
2023-04-07T02:02:07.706Z,2.00
2023-04-07T02:03:21.461Z,6.20
2023-04-07T02:04:32.318Z,6.20
2023-04-07T02:05:40.159Z,6.20
2023-04-07T02:06:52.972Z,6.20
2023-04-07T02:08:09.435Z,6.30
2023-04-07T02:09:15.829Z,7.10
2023-04-07T02:10:25.107Z,6.40
2023-04-07T02:11:32.824Z,6.30
2023-04-07T02:12:42.472Z,6.30
2023-04-07T02:13:53.295Z,6.30
2023-04-07T02:15:00.206Z,6.20
2023-04-07T02:16:07.720Z,8.10
2023-04-07T02:17:13.419Z,4.70
2023-04-07T02:18:20.911Z,6.40
2023-04-07T02:19:26.339Z,6.30
2023-04-07T02:20:30.169Z,6.40
2023-04-07T02:21:37.301Z,6.20
2023-04-07T02:22:45.080Z,6.20
2023-04-07T02:24:53.046Z,6.20
2023-04-07T02:26:03.463Z,6.20
2023-04-07T02:27:08.588Z,6.80
2023-04-07T02:28:12.987Z,6.30
2023-04-07T02:29:16.160Z,6.50
2023-04-07T02:31:00.496Z,6.90
2023-04-07T02:32:07.079Z,8.10
2023-04-07T02:33:11.052Z,6.50
2023-04-07T02:34:13.827Z,6.50
2023-04-07T02:35:18.180Z,6.50
2023-04-07T02:36:20.769Z,6.40
2023-04-07T02:37:24.743Z,6.50
2023-04-07T02:38:27.936Z,6.60
2023-04-07T02:39:32.183Z,6.60
2023-04-07T02:40:36.778Z,6.50
2023-04-07T02:41:40.848Z,6.60
2023-04-07T02:42:43.534Z,6.50
2023-04-07T02:43:47.636Z,6.60
2023-04-07T02:45:56.442Z,10.80
2023-04-07T02:46:59.498Z,6.60
2023-04-07T02:48:04.834Z,6.60
2023-04-07T02:49:07.772Z,6.60
2023-04-07T02:50:12.191Z,9.70
2023-04-07T02:51:14.844Z,6.50
2023-04-07T02:52:18.847Z,6.60
2023-04-07T02:53:21.757Z,6.60
2023-04-07T02:54:31.430Z,6.60
2023-04-07T02:56:38.271Z,6.60
2023-04-07T02:57:43.691Z,9.50
2023-04-07T02:59:07.705Z,6.70
2023-04-07T03:00:16.779Z,6.70
2023-04-07T03:01:55.818Z,6.70
2023-04-07T03:02:59.735Z,6.70
2023-04-07T03:05:11.911Z,6.70
2023-04-07T03:07:34.312Z,6.70
2023-04-07T03:08:38.666Z,6.70
2023-04-07T03:09:41.761Z,6.80
2023-04-07T03:10:45.910Z,6.80
2023-04-07T03:11:49.214Z,6.90
2023-04-07T03:12:53.528Z,7.30
2023-04-07T03:13:56.860Z,7.00
2023-04-07T03:15:01.048Z,7.00
2023-04-07T03:16:03.796Z,7.00
2023-04-07T03:17:12.909Z,6.90
2023-04-07T03:19:22.375Z,6.90
2023-04-07T03:20:26.746Z,6.90
2023-04-07T03:21:32.102Z,6.80
2023-04-07T03:22:34.911Z,7.70
2023-04-07T03:23:38.924Z,6.40
2023-04-07T03:24:43.693Z,8.70
2023-04-07T03:25:47.584Z,7.00
2023-04-07T03:26:52.796Z,7.10
2023-04-07T03:28:06.827Z,7.00
2023-04-07T03:29:13.351Z,6.90
2023-04-07T03:30:18.906Z,7.00
2023-04-07T03:31:22.473Z,7.00
2023-04-07T03:32:28.901Z,5.70
2023-04-07T03:33:32.450Z,6.90
2023-04-07T03:34:37.401Z,9.20
2023-04-07T03:35:39.915Z,6.80
2023-04-07T03:36:43.209Z,6.90
2023-04-07T03:37:46.577Z,7.10
2023-04-07T03:38:54.000Z,7.10
2023-04-07T03:39:56.829Z,7.70
2023-04-07T03:41:03.576Z,7.00
2023-04-07T03:42:06.273Z,7.00
2023-04-07T03:43:14.227Z,10.10
2023-04-07T03:44:17.277Z,7.10
2023-04-07T03:45:21.693Z,6.30
2023-04-07T03:46:27.243Z,7.00
2023-04-07T03:47:31.374Z,7.00
2023-04-07T03:48:37.842Z,6.90
2023-04-07T03:49:47.084Z,6.80
2023-04-07T03:50:49.864Z,6.70
2023-04-07T03:51:55.289Z,6.70
2023-04-07T03:53:00.464Z,6.70
2023-04-07T03:54:06.958Z,10.30
2023-04-07T03:55:14.675Z,6.70
2023-04-07T03:56:18.748Z,6.70
2023-04-07T03:57:24.340Z,6.70
2023-04-07T03:58:29.033Z,6.80
2023-04-07T03:59:32.464Z,6.80
2023-04-07T04:00:41.224Z,6.80
2023-04-07T04:01:46.164Z,6.90
2023-04-07T04:02:53.207Z,6.90
2023-04-07T04:03:56.490Z,6.90
2023-04-07T04:05:04.733Z,6.90
2023-04-07T04:06:07.561Z,6.00
2023-04-07T04:07:11.095Z,6.90
2023-04-07T04:08:27.010Z,6.80
2023-04-07T04:09:31.072Z,6.80
2023-04-07T04:10:34.671Z,6.70
2023-04-07T04:11:39.683Z,6.80
2023-04-07T04:12:45.008Z,7.50
2023-04-07T04:13:50.088Z,6.90
2023-04-07T04:14:53.270Z,6.90
2023-04-07T04:15:57.380Z,8.50
2023-04-07T04:16:59.978Z,6.80
2023-04-07T04:18:08.955Z,6.90
2023-04-07T04:19:13.965Z,6.90
2023-04-07T04:20:19.258Z,3.70
2023-04-07T04:21:27.056Z,2.90
2023-04-07T04:22:31.458Z,6.90
2023-04-07T04:23:34.333Z,6.90
2023-04-07T04:24:38.935Z,6.90
2023-04-07T04:25:44.250Z,6.90
2023-04-07T04:26:49.204Z,6.90
2023-04-07T04:27:54.374Z,6.90
2023-04-07T04:29:00.882Z,6.90
2023-04-07T04:30:04.808Z,6.80
2023-04-07T04:31:13.945Z,8.20
2023-04-07T04:32:19.619Z,6.80
2023-04-07T04:33:23.217Z,7.00
2023-04-07T04:34:31.657Z,7.00
2023-04-07T04:35:37.287Z,3.20
2023-04-07T04:36:44.427Z,7.00
2023-04-07T04:37:48.562Z,7.00
2023-04-07T04:38:52.225Z,7.10
2023-04-07T04:39:56.998Z,7.00
2023-04-07T04:41:01.616Z,6.90
2023-04-07T04:42:06.538Z,6.90
2023-04-07T04:43:12.805Z,7.50
2023-04-07T04:44:17.132Z,6.90
2023-04-07T04:45:21.678Z,7.00
2023-04-07T04:46:27.193Z,7.00
2023-04-07T04:47:30.743Z,7.00
2023-04-07T04:48:34.974Z,7.10
2023-04-07T04:49:40.751Z,7.00
2023-04-07T04:50:45.664Z,7.20
2023-04-07T04:51:49.872Z,7.00
2023-04-07T04:52:54.298Z,7.00
2023-04-07T04:53:59.109Z,7.10
2023-04-07T04:55:03.993Z,8.60
2023-04-07T04:56:07.178Z,3.20
2023-04-07T04:57:22.779Z,7.00
2023-04-07T04:58:26.382Z,7.10
2023-04-07T04:59:32.925Z,7.00
2023-04-07T05:00:39.500Z,6.90
2023-04-07T05:01:44.051Z,6.90
2023-04-07T05:02:51.500Z,6.90
2023-04-07T05:03:54.640Z,7.00
2023-04-07T05:05:01.602Z,7.00
2023-04-07T05:06:07.326Z,9.20
2023-04-07T05:07:11.062Z,7.20
2023-04-07T05:08:13.809Z,5.20
2023-04-07T05:09:17.567Z,7.30
2023-04-07T05:10:22.505Z,7.30
2023-04-07T05:11:28.256Z,7.30
2023-04-07T05:12:31.896Z,7.30
2023-04-07T05:13:40.940Z,7.30
2023-04-07T05:14:44.081Z,8.10
2023-04-07T05:15:48.087Z,5.80
2023-04-07T05:16:51.032Z,7.40
2023-04-07T05:17:59.247Z,7.40
2023-04-07T05:19:04.222Z,7.40
2023-04-07T05:20:10.644Z,7.40
2023-04-07T05:21:20.242Z,7.50
2023-04-07T05:22:24.016Z,7.40
2023-04-07T05:23:28.260Z,7.50
2023-04-07T05:24:33.641Z,7.40
2023-04-07T05:25:37.659Z,6.30
2023-04-07T05:26:43.005Z,7.40
2023-04-07T05:27:46.805Z,7.40
2023-04-07T05:28:53.356Z,7.40
2023-04-07T05:29:59.407Z,10.40
2023-04-07T05:31:09.331Z,7.40
2023-04-07T05:32:12.135Z,7.40
2023-04-07T05:33:15.933Z,7.40
2023-04-07T05:34:22.396Z,7.40
2023-04-07T05:35:32.916Z,7.60
2023-04-07T05:36:37.415Z,7.40
2023-04-07T05:37:42.245Z,7.30
2023-04-07T05:38:47.918Z,11.20
2023-04-07T05:39:54.840Z,7.40
2023-04-07T05:40:57.634Z,7.90
2023-04-07T05:42:05.463Z,7.40
2023-04-07T05:43:09.997Z,7.40
2023-04-07T05:44:12.417Z,7.10
2023-04-07T05:45:18.582Z,7.50
2023-04-07T05:46:24.218Z,7.40
2023-04-07T05:47:32.175Z,7.50
2023-04-07T05:48:36.037Z,7.50
2023-04-07T05:49:45.979Z,9.90
2023-04-07T05:50:49.253Z,7.40
2023-04-07T05:51:56.861Z,7.40
2023-04-07T05:52:59.790Z,7.40
2023-04-07T05:54:04.772Z,7.50
2023-04-07T05:55:08.644Z,6.80
2023-04-07T05:56:12.121Z,9.90
2023-04-07T05:57:22.779Z,3.80
2023-04-07T05:58:28.154Z,7.50
2023-04-07T05:59:32.294Z,7.50
2023-04-07T06:00:36.044Z,7.60
2023-04-07T06:01:44.215Z,7.50
2023-04-07T06:02:48.167Z,7.60
2023-04-07T06:03:54.897Z,7.60
2023-04-07T06:05:03.876Z,4.80
2023-04-07T06:06:06.877Z,7.50
2023-04-07T06:07:13.140Z,7.60
2023-04-07T06:08:18.491Z,7.50
2023-04-07T06:09:22.521Z,7.60
2023-04-07T06:10:26.765Z,7.70
2023-04-07T06:11:29.759Z,7.70
2023-04-07T06:12:33.216Z,7.70
2023-04-07T06:13:36.912Z,7.70
2023-04-07T06:14:41.078Z,7.70
2023-04-07T06:15:43.701Z,7.70
2023-04-07T06:16:47.734Z,7.70
2023-04-07T06:17:50.359Z,7.70
2023-04-07T06:18:54.570Z,7.70
2023-04-07T06:19:57.913Z,8.70
2023-04-07T06:21:04.785Z,7.80
2023-04-07T06:22:08.359Z,7.70
2023-04-07T06:23:12.444Z,7.70
2023-04-07T06:24:16.223Z,7.90
2023-04-07T06:25:19.108Z,7.80
2023-04-07T06:26:23.757Z,11.30
2023-04-07T06:27:28.151Z,7.80
2023-04-07T06:28:31.863Z,7.90
2023-04-07T06:29:37.130Z,7.70
2023-04-07T06:30:41.725Z,7.70
2023-04-07T06:31:48.148Z,7.70
2023-04-07T06:32:50.818Z,7.80
2023-04-07T06:33:54.709Z,8.20
2023-04-07T06:34:58.155Z,7.70
2023-04-07T06:36:02.194Z,7.90
2023-04-07T06:37:06.951Z,7.70
2023-04-07T06:38:11.799Z,7.80
2023-04-07T06:39:15.275Z,8.10
2023-04-07T06:40:17.894Z,7.90
2023-04-07T06:41:21.482Z,11.40
2023-04-07T06:42:23.831Z,11.40
2023-04-07T06:43:36.467Z,8.00
2023-04-07T06:44:40.238Z,8.00
2023-04-07T06:45:43.880Z,8.10
2023-04-07T06:46:47.715Z,8.20
2023-04-07T06:47:51.413Z,8.00
2023-04-07T06:48:54.311Z,5.40
2023-04-07T06:51:00.664Z,8.00
2023-04-07T06:52:04.475Z,8.10
2023-04-07T06:53:06.878Z,8.10
2023-04-07T06:54:14.111Z,8.10
2023-04-07T06:55:16.968Z,8.20
2023-04-07T06:56:21.134Z,8.30
2023-04-07T06:57:23.606Z,8.20
2023-04-07T06:58:29.591Z,8.10
2023-04-07T06:59:32.033Z,8.20
2023-04-07T07:00:36.125Z,6.40
2023-04-07T07:01:38.816Z,8.10
2023-04-07T07:02:42.996Z,8.20
2023-04-07T07:03:47.677Z,8.20
2023-04-07T07:04:53.205Z,8.20
2023-04-07T07:05:57.854Z,8.30
2023-04-07T07:07:00.535Z,8.30
2023-04-07T07:08:04.124Z,6.00
2023-04-07T07:09:06.705Z,8.40
2023-04-07T07:10:12.799Z,8.90
2023-04-07T07:11:18.676Z,12.60
2023-04-07T07:12:22.678Z,8.70
2023-04-07T07:13:29.242Z,8.30
2023-04-07T07:14:33.026Z,8.30
2023-04-07T07:15:35.948Z,8.50
2023-04-07T07:16:39.747Z,5.00
2023-04-07T07:17:42.968Z,8.40
2023-04-07T07:18:46.842Z,8.40
2023-04-07T07:19:49.778Z,8.40
2023-04-07T07:20:53.257Z,8.40
2023-04-07T07:21:55.893Z,8.50
2023-04-07T07:22:59.965Z,8.50
2023-04-07T07:24:02.388Z,7.60
2023-04-07T07:25:09.358Z,8.60
2023-04-07T07:26:13.361Z,8.60
2023-04-07T07:27:17.395Z,8.70
2023-04-07T07:28:21.818Z,8.70
2023-04-07T07:29:24.336Z,8.80
2023-04-07T07:30:29.056Z,9.00
2023-04-07T07:31:32.984Z,10.80
2023-04-07T07:33:42.108Z,8.90
2023-04-07T07:34:45.510Z,8.90
2023-04-07T07:35:48.988Z,5.90
2023-04-07T07:36:51.686Z,9.20
2023-04-07T07:37:55.240Z,9.40
2023-04-07T07:38:58.731Z,8.90
2023-04-07T07:40:02.897Z,9.00
2023-04-07T07:41:07.990Z,9.00
2023-04-07T07:42:12.851Z,8.90
2023-04-07T07:43:18.086Z,8.90
2023-04-07T07:44:22.842Z,9.00
2023-04-07T07:45:29.334Z,9.00
2023-04-07T07:46:31.884Z,9.00
2023-04-07T07:47:37.800Z,9.00
2023-04-07T07:48:41.600Z,10.60
2023-04-07T07:49:44.544Z,9.00
2023-04-07T07:50:49.187Z,9.00
2023-04-07T07:51:51.850Z,9.00
2023-04-07T07:52:57.701Z,9.00
2023-04-07T07:54:02.339Z,9.10
2023-04-07T07:55:08.467Z,9.10
2023-04-07T07:56:11.724Z,9.10
2023-04-07T07:58:23.921Z,9.10
2023-04-07T07:59:27.644Z,9.10
2023-04-07T08:00:30.628Z,10.30
2023-04-07T08:02:37.936Z,9.20
2023-04-07T08:03:41.961Z,9.20
2023-04-07T08:04:45.913Z,9.10
2023-04-07T08:05:51.552Z,9.20
2023-04-07T08:06:55.221Z,9.30
2023-04-07T08:08:00.560Z,9.30
2023-04-07T08:09:03.441Z,9.30
2023-04-07T08:10:08.185Z,9.40
2023-04-07T08:11:11.026Z,9.90
2023-04-07T08:12:19.830Z,9.80
2023-04-07T08:13:23.693Z,9.80
2023-04-07T08:14:27.660Z,9.90
2023-04-07T08:15:30.514Z,9.70
2023-04-07T08:16:37.166Z,9.80
2023-04-07T08:17:40.823Z,9.80
2023-04-07T08:18:46.011Z,8.00
2023-04-07T08:19:51.934Z,10.40
2023-04-07T08:20:55.922Z,11.70
2023-04-07T08:23:03.615Z,10.80
2023-04-07T08:24:07.228Z,10.90
2023-04-07T08:25:10.831Z,11.00
2023-04-07T08:26:13.350Z,11.00
2023-04-07T08:27:21.011Z,10.90
2023-04-07T08:28:26.813Z,11.20
2023-04-07T08:29:31.260Z,11.00
2023-04-07T08:30:34.623Z,11.00
2023-04-07T08:31:38.765Z,10.90
2023-04-07T08:32:45.901Z,10.80
2023-04-07T08:33:48.988Z,10.80
2023-04-07T08:34:52.878Z,10.60
2023-04-07T08:35:56.977Z,8.00
2023-04-07T08:36:59.982Z,10.60
2023-04-07T08:38:06.272Z,10.50
2023-04-07T08:39:08.875Z,8.40
2023-04-07T08:40:13.454Z,10.50
2023-04-07T08:41:24.425Z,10.50
2023-04-07T08:42:31.451Z,10.40
2023-04-07T08:43:45.983Z,9.30
2023-04-07T08:44:53.422Z,10.30
2023-04-07T08:45:57.917Z,10.20
2023-04-07T08:47:05.968Z,10.10
2023-04-07T08:48:18.932Z,10.10
2023-04-07T08:49:29.895Z,10.10
2023-04-07T08:50:37.074Z,10.10
2023-04-07T08:51:47.747Z,13.20
2023-04-07T08:52:53.566Z,10.10
2023-04-07T08:54:06.670Z,10.00
2023-04-07T08:55:10.028Z,10.00
2023-04-07T08:56:17.847Z,10.20
2023-04-07T08:57:22.124Z,10.20
2023-04-07T08:58:28.269Z,13.80
2023-04-07T08:59:33.760Z,10.20
2023-04-07T09:00:38.145Z,10.10
2023-04-07T09:01:42.935Z,10.20
2023-04-07T09:02:45.954Z,10.30
2023-04-07T09:03:51.221Z,10.30
2023-04-07T09:04:57.439Z,10.30
2023-04-07T09:06:05.688Z,10.50
2023-04-07T09:07:08.306Z,10.40
2023-04-07T09:08:12.417Z,10.50
2023-04-07T09:09:15.850Z,10.50
2023-04-07T09:10:18.260Z,10.60
2023-04-07T09:11:25.078Z,10.50
2023-04-07T09:12:28.999Z,10.50
2023-04-07T09:13:33.541Z,10.40
2023-04-07T09:14:39.733Z,12.10
2023-04-07T09:15:43.525Z,10.30
2023-04-07T09:16:46.924Z,10.40
2023-04-07T09:17:51.227Z,10.30
2023-04-07T09:18:53.905Z,11.70
2023-04-07T09:19:59.613Z,10.30
2023-04-07T09:21:05.219Z,10.30
2023-04-07T09:22:12.812Z,10.40
2023-04-07T09:23:32.593Z,10.40
2023-04-07T09:24:38.569Z,11.90
2023-04-07T09:25:44.973Z,11.00
2023-04-07T09:26:47.565Z,13.40
2023-04-07T09:28:00.156Z,11.70
2023-04-07T09:29:05.143Z,8.70
2023-04-07T09:30:16.812Z,11.70
2023-04-07T09:31:21.184Z,11.50
2023-04-07T09:32:39.007Z,10.70
2023-04-07T09:33:42.879Z,15.00
2023-04-07T09:34:59.629Z,11.30
2023-04-07T09:36:03.842Z,11.20
2023-04-07T09:37:08.556Z,11.10
2023-04-07T09:38:16.072Z,11.30
2023-04-07T09:39:19.802Z,10.90
2023-04-07T09:41:37.024Z,14.60
2023-04-07T09:42:50.948Z,10.60
2023-04-07T09:43:59.195Z,10.50
2023-04-07T09:45:02.903Z,10.60
2023-04-07T09:46:13.426Z,10.50
2023-04-07T09:47:17.959Z,10.50
2023-04-07T09:48:21.998Z,10.50
2023-04-07T09:49:29.197Z,10.40
2023-04-07T09:50:35.595Z,14.10
2023-04-07T09:51:40.330Z,11.40
2023-04-07T09:52:54.038Z,10.30
2023-04-07T09:53:57.621Z,10.40
2023-04-07T09:55:00.331Z,10.20
2023-04-07T09:56:05.389Z,10.40
2023-04-07T09:57:11.021Z,10.30
2023-04-07T09:58:18.689Z,10.40
2023-04-07T09:59:25.483Z,10.30
2023-04-07T10:00:28.977Z,10.30
2023-04-07T10:01:34.309Z,9.70
2023-04-07T10:03:41.676Z,10.50
2023-04-07T10:04:45.904Z,10.40
2023-04-07T10:05:49.948Z,10.40
2023-04-07T10:06:54.495Z,10.50
2023-04-07T10:07:58.545Z,11.60
2023-04-07T10:09:05.012Z,10.50
2023-04-07T10:10:09.792Z,10.50
2023-04-07T10:11:17.457Z,10.60
2023-04-07T10:12:21.476Z,10.60
2023-04-07T10:13:25.986Z,10.60
2023-04-07T10:14:31.749Z,10.70
2023-04-07T10:15:37.914Z,10.70
2023-04-07T10:16:45.678Z,14.00
2023-04-07T10:17:53.502Z,10.70
2023-04-07T10:18:58.628Z,10.70
2023-04-07T10:20:04.911Z,10.80
2023-04-07T10:21:10.802Z,10.70
2023-04-07T10:22:17.144Z,10.80
2023-04-07T10:23:25.659Z,10.80
2023-04-07T10:24:49.035Z,10.80
2023-04-07T10:25:56.118Z,10.80
2023-04-07T10:27:05.650Z,10.80
2023-04-07T10:28:14.141Z,10.80
2023-04-07T10:29:20.079Z,11.00
2023-04-07T10:30:27.775Z,11.00
2023-04-07T10:31:34.448Z,11.00
2023-04-07T10:32:49.161Z,11.00
2023-04-07T10:33:57.014Z,11.00
2023-04-07T10:35:02.003Z,11.10
2023-04-07T10:36:07.438Z,11.10
2023-04-07T10:37:13.512Z,11.10
2023-04-07T10:38:18.482Z,14.60
2023-04-07T10:39:27.967Z,11.10
2023-04-07T10:40:35.207Z,11.20
2023-04-07T10:41:39.531Z,11.20
2023-04-07T10:42:48.945Z,11.20
2023-04-07T10:43:54.301Z,11.20
2023-04-07T10:46:02.924Z,9.00
2023-04-07T10:47:10.131Z,11.30
2023-04-07T10:48:15.548Z,11.30
2023-04-07T10:49:21.199Z,11.30
2023-04-07T10:50:29.493Z,11.30
2023-04-07T10:51:36.659Z,11.20
2023-04-07T10:52:42.023Z,11.20
2023-04-07T10:54:18.815Z,11.20
2023-04-07T10:55:37.804Z,11.20
2023-04-07T10:57:12.149Z,11.40
2023-04-07T10:58:20.646Z,12.10
2023-04-07T10:59:28.025Z,12.40
2023-04-07T11:00:31.741Z,12.60
2023-04-07T11:01:34.951Z,12.70
2023-04-07T11:02:42.974Z,10.70
2023-04-07T11:04:02.319Z,12.80
2023-04-07T11:06:10.787Z,12.50
2023-04-07T11:07:16.658Z,12.60
2023-04-07T11:08:34.328Z,12.50
2023-04-07T11:10:41.075Z,12.30
2023-04-07T11:11:44.025Z,12.20
2023-04-07T11:13:07.789Z,12.20
2023-04-07T11:14:10.633Z,12.20
2023-04-07T11:15:24.048Z,12.20
2023-04-07T11:16:38.436Z,12.00
2023-04-07T11:17:41.998Z,12.00
2023-04-07T11:18:48.059Z,12.00
2023-04-07T11:19:55.509Z,12.00
2023-04-07T11:20:59.673Z,12.00
2023-04-07T11:22:26.683Z,12.00
2023-04-07T11:23:41.112Z,12.10
2023-04-07T11:24:44.751Z,12.10
2023-04-07T11:25:58.276Z,12.10
2023-04-07T11:27:01.297Z,12.00
2023-04-07T11:28:06.223Z,12.00
2023-04-07T11:29:11.844Z,9.20
2023-04-07T11:30:15.726Z,11.90
2023-04-07T11:31:24.806Z,12.00
2023-04-07T11:32:29.952Z,11.90
2023-04-07T11:33:35.945Z,11.80
2023-04-07T11:34:39.735Z,11.80
2023-04-07T11:35:51.154Z,11.80
2023-04-07T11:36:59.977Z,11.90
2023-04-07T11:38:03.797Z,11.90
2023-04-07T11:39:33.755Z,11.80
2023-04-07T11:40:38.242Z,11.90
2023-04-07T11:41:48.810Z,11.50
2023-04-07T11:42:51.959Z,11.90
2023-04-07T11:44:09.945Z,11.90
2023-04-07T11:45:18.342Z,11.90
2023-04-07T11:46:22.683Z,11.90
2023-04-07T11:47:34.889Z,11.80
2023-04-07T11:48:45.088Z,11.90
2023-04-07T11:50:58.889Z,11.80
2023-04-07T11:52:07.552Z,11.80
2023-04-07T11:53:10.632Z,11.80
2023-04-07T11:54:16.256Z,11.60
2023-04-07T11:55:22.000Z,11.70
2023-04-07T11:56:26.197Z,11.60
2023-04-07T11:57:30.067Z,11.60
2023-04-07T11:58:34.056Z,11.50
2023-04-07T11:59:38.552Z,11.50
2023-04-07T12:00:55.947Z,11.40
2023-04-07T18:40:21.846Z,8.80
2023-04-07T18:58:45.183Z,8.50
2023-04-07T19:18:23.710Z,8.30
2023-04-07T19:23:45.905Z,8.30
2023-04-07T19:31:22.351Z,8.10
2023-04-07T19:32:25.494Z,8.30
2023-04-07T19:47:37.528Z,7.80
2023-04-07T19:48:41.329Z,8.00
2023-04-07T19:49:44.299Z,4.20
2023-04-07T19:50:49.758Z,8.00
2023-04-07T19:51:54.200Z,8.00
2023-04-07T19:52:57.793Z,8.00
2023-04-07T19:57:14.681Z,8.10
2023-04-07T20:00:31.646Z,8.00
2023-04-07T20:02:43.419Z,4.60
2023-04-07T20:04:58.543Z,7.90
2023-04-07T20:06:02.146Z,7.80
2023-04-07T20:08:08.481Z,7.80
2023-04-07T20:10:15.094Z,7.80
2023-04-07T20:11:19.634Z,7.70
2023-04-07T20:14:37.834Z,7.70
2023-04-07T20:15:40.335Z,7.70
2023-04-07T20:16:44.357Z,7.70
2023-04-07T20:17:48.142Z,7.70
2023-04-07T20:18:53.135Z,7.70
2023-04-07T20:19:56.649Z,7.70
2023-04-07T20:21:02.447Z,7.80
2023-04-07T20:22:06.568Z,7.80
2023-04-07T20:23:09.529Z,7.70
2023-04-07T20:24:13.731Z,7.70
2023-04-07T20:26:22.354Z,6.40
2023-04-07T20:27:27.283Z,7.50
2023-04-07T20:28:33.837Z,7.60
2023-04-07T20:29:43.136Z,7.60
2023-04-07T20:30:49.332Z,7.40
2023-04-07T20:31:53.039Z,7.40
2023-04-07T20:32:57.929Z,7.40
2023-04-07T20:34:06.850Z,7.30
2023-04-07T20:35:12.293Z,7.20
2023-04-07T20:36:16.160Z,7.20
2023-04-07T20:37:19.461Z,7.10
2023-04-07T20:38:24.168Z,7.10
2023-04-07T20:39:26.901Z,7.10
2023-04-07T20:40:32.496Z,7.10
2023-04-07T20:41:36.516Z,7.00
2023-04-07T20:42:39.537Z,7.00
2023-04-07T20:43:43.857Z,6.90
2023-04-07T20:44:50.458Z,6.90
2023-04-07T20:45:54.527Z,6.90
2023-04-07T20:46:57.956Z,6.90
2023-04-07T20:48:02.069Z,6.90
2023-04-07T20:49:08.172Z,6.90
2023-04-07T20:50:12.216Z,6.90
2023-04-07T20:51:14.737Z,6.90
2023-04-07T20:52:18.810Z,7.00
2023-04-07T20:53:21.729Z,7.00
2023-04-07T20:54:25.876Z,7.60
2023-04-07T20:55:29.736Z,7.90
2023-04-07T20:56:33.691Z,7.00
2023-04-07T20:57:36.413Z,7.00
2023-04-07T20:58:40.144Z,7.00
2023-04-07T20:59:43.117Z,6.90
2023-04-07T21:00:50.340Z,6.90
2023-04-07T21:01:53.594Z,7.00
2023-04-07T21:02:57.836Z,6.90
2023-04-07T21:04:03.186Z,6.90
2023-04-07T21:05:08.333Z,6.80
2023-04-07T21:06:11.504Z,6.90
2023-04-07T21:07:15.169Z,9.10
2023-04-07T21:08:21.213Z,6.90
2023-04-07T21:09:25.552Z,7.00
2023-04-07T21:10:29.346Z,7.00
2023-04-07T21:11:33.409Z,6.90
2023-04-07T21:12:37.999Z,6.90
2023-04-07T21:13:40.852Z,6.90
2023-04-07T21:14:46.695Z,6.90
2023-04-07T21:15:51.818Z,6.80
2023-04-07T21:16:57.764Z,6.90
2023-04-07T21:18:01.300Z,6.80
2023-04-07T21:19:06.684Z,6.80
2023-04-07T21:20:14.909Z,6.80
2023-04-07T21:21:18.886Z,8.90
2023-04-07T21:22:21.825Z,6.70
2023-04-07T21:23:25.628Z,6.80
2023-04-07T21:24:29.813Z,6.70
2023-04-07T21:25:33.906Z,6.80
2023-04-07T21:26:39.053Z,6.80
2023-04-07T21:27:44.815Z,6.80
2023-04-07T21:28:47.546Z,6.70
2023-04-07T21:29:52.060Z,5.80
2023-04-07T21:30:57.594Z,6.70
2023-04-07T21:32:03.538Z,6.70
2023-04-07T21:33:06.728Z,6.70
2023-04-07T21:34:14.299Z,6.70
2023-04-07T21:35:17.742Z,7.50
2023-04-07T21:36:24.406Z,4.30
2023-04-07T21:37:30.529Z,4.90
2023-04-07T21:38:35.060Z,6.30
2023-04-07T21:39:37.889Z,6.70
2023-04-07T21:40:41.785Z,6.70
2023-04-07T21:41:45.320Z,6.70
2023-04-07T21:42:49.246Z,6.70
2023-04-07T21:43:52.442Z,6.70
2023-04-07T21:44:56.362Z,6.70
2023-04-07T21:46:00.765Z,6.70
2023-04-07T21:47:04.890Z,6.70
2023-04-07T21:48:08.114Z,6.70
2023-04-07T21:49:12.242Z,6.80
2023-04-07T21:50:14.986Z,4.90
2023-04-07T21:51:19.267Z,6.80
2023-04-07T21:52:21.976Z,6.80
2023-04-07T21:53:25.853Z,3.70
2023-04-07T21:54:28.973Z,7.00
2023-04-07T21:55:34.201Z,6.80
2023-04-07T21:56:37.343Z,6.80
2023-04-07T21:57:41.485Z,5.60
2023-04-07T21:58:46.538Z,6.70
2023-04-07T21:59:50.704Z,6.80
2023-04-07T22:00:54.471Z,6.80
2023-04-07T22:02:00.804Z,6.80
2023-04-07T22:03:04.370Z,6.80
2023-04-07T22:04:08.330Z,6.80
2023-04-07T22:05:12.037Z,6.80
2023-04-07T22:06:16.208Z,6.80
2023-04-07T22:07:19.887Z,6.80
2023-04-07T22:08:24.256Z,6.70
2023-04-07T22:09:30.735Z,6.70
2023-04-07T22:10:35.065Z,5.50
2023-04-07T22:11:38.602Z,6.60
2023-04-07T22:12:43.547Z,6.60
2023-04-07T22:13:46.703Z,4.80
2023-04-07T22:14:51.743Z,6.40
2023-04-07T22:15:56.357Z,7.90
2023-04-07T22:17:04.761Z,5.50
2023-04-07T22:18:07.651Z,6.50
2023-04-07T22:19:12.442Z,6.50
2023-04-07T22:20:15.655Z,6.40
2023-04-07T22:21:20.250Z,6.40
2023-04-07T22:22:23.147Z,6.30
2023-04-07T22:23:28.143Z,6.30
2023-04-07T22:24:42.575Z,6.20
2023-04-07T22:25:46.201Z,9.00
2023-04-07T22:26:50.948Z,6.10
2023-04-07T22:27:54.530Z,6.10
2023-04-07T22:28:59.354Z,6.10
2023-04-07T22:30:04.532Z,6.20
2023-04-07T22:31:09.103Z,6.20
2023-04-07T22:32:13.665Z,3.40
2023-04-07T22:33:18.017Z,6.10
2023-04-07T22:34:21.054Z,6.20
2023-04-07T22:35:25.030Z,6.20
2023-04-07T22:36:28.812Z,6.20
2023-04-07T22:37:33.034Z,6.10
2023-04-07T22:38:36.345Z,6.10
2023-04-07T22:39:40.302Z,6.10
2023-04-07T22:40:43.694Z,6.10
2023-04-07T22:41:48.582Z,6.10
2023-04-07T22:42:51.287Z,6.10
2023-04-07T22:43:55.773Z,6.20
2023-04-07T22:44:58.673Z,6.20